Terminal Aerodrome Forecast
Issued by NWS

Home | Current Version | Previous Version | Text Only | Print | Product List | Glossary On
Versions: 1 2 3 4 5 6 7 8 9 10 11 12 13 14 15 16 17 18 19 20 21 22 23 24 25 26 27 28 29 30 31 32 33 34 35
000
FTUS46 KOTX 111424 AAA
TAFCOE
TAF AMD
KCOE 111424Z 1114/1212 05004KT 3SM BR SCT003
      TEMPO 1114/1116 1SM BR VV003
     FM111700 05005KT 6SM PRFG FEW004 BKN200
     FM111900 04006KT P6SM SCT025 OVC060
     FM120200 04005KT P6SM -RA SCT025 OVC050
     FM120700 06006KT P6SM -RA BKN025 OVC050
      AMD LTD TO CLD AND VIS=

USA.gov is the U.S. government's official web portal to all federal, state and local government web resources and services.